Yuejianhang055 — 055 — position and weather

sailwx.info

Track history (hours):
 
Tides and Currents Weather Stations Pressure Air Temp Water Temp Dewpoint Dewpoint Depression Visibility Wind Speed Wind Dir Waves Ship Positions

Yuejianhang055

Last reported at 2016-Jun-01 10:10 UTC. Time now 2016-Jun-26 08:27 UTC.
Position N 23°03' E 113°19'.
Warning: this ship's position is 24 days out of date.

Length 76 m.

Type: Cargo ship. MMSI: 412474880.

Date/timePositionNaut miles runAvg speedWind from/ knotsBaromVisibWave heightAir tempDewpointWater temp
2016-Jun-01 10:10N 23°03' E 113°19'3 5.0
2016-Jun-01 09:29N 23°02' E 113°23'4 4.3
2016-Jun-01 08:33N 23°05' E 113°26'4 3.6
2016-Jun-01 07:21N 23°03' E 113°30'0 0.0
2016-Jun-01 05:18N 23°03' E 113°30'1 0.1
2016-May-31 13:15N 23°03' E 113°32'3 3.3
2016-May-31 12:24N 23°04' E 113°29'3 3.6
2016-May-31 11:33N 23°04' E 113°25'3 3.2
2016-May-31 10:27N 23°02' E 113°22'  
Track history (hours):
 
Tides and Currents Weather Stations Pressure Air Temp Water Temp Dewpoint Dewpoint Depression Visibility Wind Speed Wind Dir Waves Ship Positions

Yuejianhang055

Last reported at 2016-Jun-01 10:10 UTC. Time now 2016-Jun-26 08:27 UTC.
Position N 23°03' E 113°19'.
Warning: this ship's position is 24 days out of date.

Length 76 m.

Type: Cargo ship. MMSI: 412474880.

Date/timePositionNaut miles runAvg speedWind from/ knotsBaromVisibWave heightAir tempDewpointWater temp
2016-Jun-01 10:10N 23°03' E 113°19'3 5.0
2016-Jun-01 09:29N 23°02' E 113°23'4 4.3
2016-Jun-01 08:33N 23°05' E 113°26'4 3.6
2016-Jun-01 07:21N 23°03' E 113°30'0 0.0
2016-Jun-01 05:18N 23°03' E 113°30'1 0.1
2016-May-31 13:15N 23°03' E 113°32'3 3.3
2016-May-31 12:24N 23°04' E 113°29'3 3.6
2016-May-31 11:33N 23°04' E 113°25'3 3.2
2016-May-31 10:27N 23°02' E 113°22'  

Dump ship's entire track history